Time;durP1;ratioP1;P1;durP2;ratioP2;P2;SDS_P1;SDS_P2;PMS_P1;PMS_P2;Temp;Humidity;BMP_temperature;BMP_pressure;BME280_temperature;BME280_humidity;BME280_pressure;Samples;Min_cycle;Max_cycle;Signal;HPM_P1;HPM_P2
2021/07/13 00:01:05;;;;;;;;;8.00;8.00;;;;;19.01;68.18;100379.34;5078045;28;45615;-81
2021/07/13 00:03:31;;;;;;;;;6.25;6.25;;;;;19.01;67.99;100379.34;5077775;28;45774;-82
2021/07/13 00:05:57;;;;;;;;;6.50;6.50;;;;;18.98;68.63;100378.88;5076793;28;45734;-80
2021/07/13 00:08:22;;;;;;;;;8.25;7.25;;;;;18.86;68.54;100365.94;5058297;28;45593;-81
2021/07/13 00:10:47;;;;;;;;;6.50;6.25;;;;;19.00;68.35;100393.63;5076385;28;45562;-81
2021/07/13 00:13:13;;;;;;;;;8.00;8.00;;;;;18.98;68.59;100387.66;5076124;28;46288;-81
2021/07/13 00:15:41;;;;;;;;;8.00;8.00;;;;;18.92;68.54;100361.78;5076292;28;46140;-80
2021/07/13 00:21:28;;;;;;;;;10.00;9.25;;;;;18.93;68.94;100359.97;5071803;28;45986;-82
2021/07/13 00:23:54;;;;;;;;;8.50;8.50;;;;;18.79;68.90;100342.88;5076026;28;45642;-81
2021/07/13 00:26:19;;;;;;;;;8.75;8.75;;;;;18.91;68.71;100377.88;5076038;28;45541;-82
2021/07/13 00:28:45;;;;;;;;;10.75;10.75;;;;;18.89;69.21;100374.59;5076386;28;45505;-81
2021/07/13 00:31:10;;;;;;;;;13.00;11.00;;;;;18.78;68.94;100355.34;5075964;28;47275;-83
2021/07/13 00:33:36;;;;;;;;;10.75;10.00;;;;;18.84;69.11;100357.31;5057437;28;48072;-81
2021/07/13 00:36:01;;;;;;;;;13.00;12.50;;;;;18.76;69.22;100343.22;5074609;28;45609;-83
2021/07/13 00:38:27;;;;;;;;;14.50;12.50;;;;;18.80;69.20;100357.81;5076277;28;45572;-82
2021/07/13 00:40:53;;;;;;;;;12.25;11.75;;;;;18.73;69.72;100343.59;5075892;28;46190;-81
2021/07/13 00:43:18;;;;;;;;;11.75;11.00;;;;;18.70;69.25;100335.94;5075815;28;45658;-82
2021/07/13 00:45:43;;;;;;;;;14.25;14.25;;;;;18.79;69.35;100337.56;5075896;28;45519;-81
2021/07/13 00:51:30;;;;;;;;;15.00;14.00;;;;;18.74;69.99;100327.47;5075429;28;45528;-83
2021/07/13 00:53:57;;;;;;;;;13.00;12.00;;;;;18.63;69.59;100306.59;5075443;28;46269;-83
2021/07/13 00:56:22;;;;;;;;;14.25;13.00;;;;;18.65;69.60;100315.22;5075726;28;45662;-83
2021/07/13 00:58:48;;;;;;;;;15.50;15.00;;;;;18.67;69.96;100336.28;5075569;28;45582;-83
2021/07/13 01:01:13;;;;;;;;;16.50;16.25;;;;;18.54;69.85;100307.59;5075320;28;46677;-82
2021/07/13 01:07:07;;;;;;;;;14.00;14.00;;;;;18.62;69.96;100320.03;5075286;28;45458;-83
2021/07/13 01:09:45;;;;;;;;;16.25;15.75;;;;;18.56;69.52;100315.41;5075794;28;45707;-82
2021/07/13 01:12:28;;;;;;;;;14.50;13.75;;;;;18.55;69.73;100300.47;5056633;28;47313;-81
2021/07/13 01:14:57;;;;;;;;;19.75;19.00;;;;;18.63;69.73;100314.53;5075138;28;45980;-82
2021/07/13 01:17:43;;;;;;;;;15.50;15.25;;;;;18.51;69.94;100285.84;5057171;28;45590;-83
2021/07/13 01:20:46;;;;;;;;;18.75;18.25;;;;;18.58;69.65;100297.47;5074803;28;45842;-82
2021/07/13 01:23:21;;;;;;;;;19.50;17.25;;;;;18.57;69.59;100322.38;5074697;28;45516;-83
2021/07/13 01:26:23;;;;;;;;;20.75;19.00;;;;;18.59;69.51;100307.09;5075193;28;45830;-81
2021/07/13 01:28:58;;;;;;;;;17.75;17.50;;;;;18.60;69.79;100300.78;5075750;28;45869;-82
2021/07/13 01:31:26;;;;;;;;;18.00;17.00;;;;;18.51;69.49;100283.19;5060016;28;45836;-80
2021/07/13 01:33:56;;;;;;;;;20.75;18.50;;;;;18.57;69.65;100291.31;5078154;28;45543;-82
2021/07/13 01:36:28;;;;;;;;;17.75;16.50;;;;;18.52;69.44;100290.97;5078422;28;45698;-81
2021/07/13 01:38:57;;;;;;;;;20.00;19.50;;;;;18.65;69.65;100322.34;5081601;28;45540;-82
2021/07/13 01:41:24;;;;;;;;;16.00;15.00;;;;;18.64;69.71;100324.16;5081906;28;45574;-81
2021/07/13 01:43:51;;;;;;;;;19.00;18.25;;;;;18.61;70.01;100336.94;5081149;28;45507;-82
2021/07/13 01:46:19;;;;;;;;;17.75;17.00;;;;;18.62;69.69;100335.97;5078787;28;45431;-81
2021/07/13 01:48:47;;;;;;;;;19.75;17.25;;;;;18.62;69.61;100341.28;5077714;28;45640;-82
2021/07/13 01:51:14;;;;;;;;;16.75;16.25;;;;;18.63;70.04;100342.91;5075558;28;45820;-82
2021/07/13 01:53:42;;;;;;;;;16.75;16.00;;;;;18.43;70.04;100306.09;5056958;28;47870;-81
2021/07/13 01:56:10;;;;;;;;;17.25;16.00;;;;;18.52;70.01;100309.53;5059243;28;47149;-82
2021/07/13 01:58:37;;;;;;;;;14.75;13.00;;;;;18.50;69.77;100306.25;5077159;28;45656;-82
2021/07/13 02:01:17;;;;;;;;;16.50;15.75;;;;;18.61;69.44;100324.50;5076372;28;45704;-81
2021/07/13 02:03:44;;;;;;;;;16.50;13.50;;;;;18.62;69.89;100330.66;5076645;28;46819;-81
2021/07/13 02:06:12;;;;;;;;;8.50;7.50;;;;;18.54;69.52;100327.97;5075275;28;46117;-82
2021/07/13 02:08:38;;;;;;;;;13.00;11.75;;;;;18.51;69.78;100317.69;5075073;28;45638;-81
2021/07/13 02:11:05;;;;;;;;;16.75;14.50;;;;;18.61;69.93;100324.50;5074941;28;45511;-81
2021/07/13 02:13:31;;;;;;;;;16.00;14.00;;;;;18.57;70.01;100317.88;5074041;28;45562;-81
2021/07/13 02:15:59;;;;;;;;;16.25;15.00;;;;;18.54;69.44;100328.81;5074587;28;45520;-80
2021/07/13 02:18:25;;;;;;;;;12.75;12.00;;;;;18.50;69.61;100316.03;5074506;28;45737;-81
2021/07/13 02:20:50;;;;;;;;;17.75;14.50;;;;;18.60;69.74;100332.63;5074315;28;45890;-81
2021/07/13 02:23:16;;;;;;;;;15.75;15.25;;;;;18.60;69.66;100325.50;5074417;28;45623;-81
2021/07/13 02:25:48;;;;;;;;;14.50;12.75;;;;;18.60;69.61;100301.63;5074356;28;45530;-81
2021/07/13 02:28:35;;;;;;;;;13.50;12.75;;;;;18.48;69.76;100294.97;5074286;28;45548;-82
2021/07/13 02:31:13;;;;;;;;;12.75;12.25;;;;;18.50;69.88;100295.63;5074428;28;45568;-82
2021/07/13 02:33:47;;;;;;;;;13.75;13.25;;;;;18.58;69.47;100324.00;5074090;28;45688;-81
2021/07/13 02:36:17;;;;;;;;;13.25;13.00;;;;;18.52;69.92;100316.66;5074206;28;46170;-82
2021/07/13 02:38:46;;;;;;;;;11.00;10.50;;;;;18.57;70.18;100330.34;5074035;28;45551;-82
2021/07/13 02:41:14;;;;;;;;;10.75;10.25;;;;;18.53;70.23;100327.13;5074219;28;45639;-81
2021/07/13 02:43:39;;;;;;;;;10.75;10.50;;;;;18.53;69.72;100331.59;5073965;28;45733;-82
2021/07/13 02:46:05;;;;;;;;;13.25;12.50;;;;;18.54;69.65;100331.47;5074260;28;46394;-82
2021/07/13 02:48:34;;;;;;;;;15.00;13.00;;;;;18.47;69.94;100317.19;5074077;28;45623;-83
2021/07/13 02:51:00;;;;;;;;;11.50;10.25;;;;;18.56;69.32;100329.50;5074226;28;45734;-83
2021/07/13 02:53:27;;;;;;;;;13.25;11.00;;;;;18.49;69.52;100309.06;5073913;28;46585;-82
2021/07/13 02:55:54;;;;;;;;;15.50;14.25;;;;;18.41;69.79;100283.34;5055373;28;48161;-82
2021/07/13 02:58:21;;;;;;;;;12.00;11.00;;;;;18.64;69.42;100328.66;5074546;28;45573;-82
2021/07/13 03:00:47;;;;;;;;;13.75;13.00;;;;;18.65;69.37;100330.31;5055542;28;45936;-81
2021/07/13 03:03:14;;;;;;;;;10.50;10.50;;;;;18.60;69.42;100327.31;5073610;28;45504;-81
2021/07/13 03:05:44;;;;;;;;;11.75;11.75;;;;;18.67;69.79;100333.63;5073292;28;46376;-81
2021/07/13 03:08:13;;;;;;;;;13.00;12.00;;;;;18.67;69.23;100323.84;5055562;28;45527;-80
2021/07/13 03:10:38;;;;;;;;;11.50;11.50;;;;;18.66;69.93;100326.66;5073834;28;45635;-81
2021/07/13 03:13:04;;;;;;;;;13.00;12.75;;;;;18.57;69.38;100319.72;5055624;28;46402;-81
2021/07/13 03:15:31;;;;;;;;;11.75;11.50;;;;;18.64;69.34;100339.25;5073610;28;45797;-81
2021/07/13 03:17:57;;;;;;;;;12.50;11.00;;;;;18.57;69.86;100328.47;5073937;28;45696;-81
2021/07/13 03:20:23;;;;;;;;;13.00;12.00;;;;;18.61;69.69;100334.31;5073499;28;45969;-80
2021/07/13 03:22:50;;;;;;;;;13.50;12.25;;;;;18.51;69.53;100307.91;5073388;28;46569;-80
2021/07/13 03:25:21;;;;;;;;;14.00;12.50;;;;;18.63;69.55;100319.84;5075456;28;45999;-82
2021/07/13 03:27:50;;;;;;;;;15.25;13.50;;;;;18.56;69.56;100305.63;5077212;28;45603;-81
2021/07/13 03:30:16;;;;;;;;;15.50;14.75;;;;;18.61;69.34;100313.91;5058421;28;45707;-81
2021/07/13 03:32:42;;;;;;;;;16.25;15.25;;;;;18.63;69.66;100309.22;5076698;28;45779;-81
2021/07/13 03:35:09;;;;;;;;;15.75;15.00;;;;;18.51;69.50;100276.06;5077095;28;46403;-81
2021/07/13 03:37:35;;;;;;;;;15.50;14.75;;;;;18.54;70.01;100278.41;5079065;28;45681;-80
2021/07/13 03:40:01;;;;;;;;;16.50;15.00;;;;;18.64;69.85;100305.59;5083405;28;45784;-80
2021/07/13 03:42:27;;;;;;;;;14.00;13.00;;;;;18.63;69.95;100306.59;5082251;28;45717;-81
2021/07/13 03:44:52;;;;;;;;;13.00;12.50;;;;;18.31;69.72;100254.34;5065728;28;48251;-81
2021/07/13 03:47:19;;;;;;;;;14.75;14.00;;;;;18.40;70.09;100273.75;5081085;28;45551;-81
2021/07/13 03:53:06;;;;;;;;;13.25;13.00;;;;;18.58;69.88;100308.91;5076302;28;46165;-81
2021/07/13 03:55:32;;;;;;;;;16.75;15.75;;;;;18.58;70.03;100313.38;5076864;28;45727;-80
2021/07/13 03:57:57;;;;;;;;;14.50;12.00;;;;;18.49;70.30;100304.59;5058622;28;45757;-81
2021/07/13 04:00:27;;;;;;;;;16.75;15.25;;;;;18.54;70.18;100312.03;5059218;28;45672;-82
2021/07/13 04:02:53;;;;;;;;;18.25;16.00;;;;;18.51;70.36;100328.31;5076680;28;45741;-82
2021/07/13 04:05:18;;;;;;;;;19.75;16.00;;;;;18.51;70.46;100307.09;5077218;28;46193;-81
2021/07/13 04:07:44;;;;;;;;;19.75;18.75;;;;;18.45;70.18;100311.22;5078985;28;45590;-82
2021/07/13 04:10:15;;;;;;;;;12.25;11.00;;;;;18.52;70.58;100324.63;5078217;28;45796;-81
2021/07/13 04:12:42;;;;;;;;;18.75;17.00;;;;;18.51;70.24;100320.34;5077169;28;45540;-82
2021/07/13 04:15:09;;;;;;;;;19.75;17.00;;;;;18.50;70.35;100318.69;5076050;28;46305;-82
2021/07/13 04:17:34;;;;;;;;;17.75;15.50;;;;;18.41;70.32;100297.44;5076566;28;45667;-82
2021/07/13 04:23:35;;;;;;;;;17.00;15.00;;;;;18.44;70.21;100313.06;5067181;28;45699;-82
2021/07/13 04:26:02;;;;;;;;;18.25;17.00;;;;;18.45;70.44;100309.41;5076173;28;46180;-82
2021/07/13 04:28:30;;;;;;;;;17.75;16.00;;;;;18.32;70.89;100290.50;5076668;28;45758;-81
2021/07/13 04:30:57;;;;;;;;;17.25;17.00;;;;;18.37;70.27;100298.78;5076640;28;45620;-81
2021/07/13 04:33:22;;;;;;;;;17.50;16.25;;;;;18.43;70.44;100314.03;5076159;28;45992;-81
2021/07/13 04:35:47;;;;;;;;;16.50;16.50;;;;;18.42;70.93;100312.38;5075465;28;46251;-82
2021/07/13 04:38:13;;;;;;;;;18.00;16.75;;;;;18.43;71.08;100319.34;5076454;28;45673;-82
2021/07/13 04:40:38;;;;;;;;;16.50;15.25;;;;;18.42;70.95;100322.16;5076439;28;45834;-82
2021/07/13 04:43:03;;;;;;;;;19.00;18.00;;;;;18.28;70.95;100304.28;5076119;28;45473;-82
2021/07/13 04:45:29;;;;;;;;;17.75;17.50;;;;;18.37;70.50;100321.81;5075872;28;46305;-82
2021/07/13 04:47:54;;;;;;;;;20.75;18.75;;;;;18.40;70.64;100321.50;5076075;28;45627;-81
2021/07/13 04:53:42;;;;;;;;;23.50;18.00;;;;;18.42;71.36;100325.66;5075460;28;45547;-80
2021/07/13 04:56:08;;;;;;;;;19.25;19.00;;;;;18.32;71.38;100293.16;5074777;28;46430;-81
2021/07/13 04:58:33;;;;;;;;;22.00;20.00;;;;;18.38;71.30;100311.06;5076309;28;45493;-82
2021/07/13 05:00:59;;;;;;;;;15.25;14.00;;;;;18.33;71.21;100305.44;5076108;28;45806;-82
2021/07/13 05:03:24;;;;;;;;;19.75;17.50;;;;;18.34;71.24;100299.13;5075747;28;45599;-82
2021/07/13 05:05:50;;;;;;;;;17.75;17.25;;;;;18.38;70.79;100310.22;5075906;28;45693;-82
2021/07/13 05:08:15;;;;;;;;;19.00;17.50;;;;;18.28;70.86;100289.19;5076179;28;45719;-82
2021/07/13 05:10:41;;;;;;;;;17.00;15.75;;;;;18.41;71.19;100309.88;5075752;28;45684;-83
2021/07/13 05:13:09;;;;;;;;;18.75;18.50;;;;;18.30;70.94;100283.72;5075801;28;46849;-81
2021/07/13 05:15:35;;;;;;;;;18.50;17.00;;;;;18.25;70.49;100283.38;5075556;28;45646;-82
2021/07/13 05:18:01;;;;;;;;;18.75;18.00;;;;;18.21;70.45;100272.28;5074096;28;45695;-82
2021/07/13 05:23:47;;;;;;;;;21.75;18.25;;;;;18.52;71.15;100327.28;5070244;28;45727;-82
2021/07/13 05:26:21;;;;;;;;;20.50;18.50;;;;;18.23;70.34;100277.41;5075697;28;46174;-83
2021/07/13 05:28:52;;;;;;;;;19.25;17.75;;;;;18.15;70.69;100270.28;5057126;28;45724;-82
2021/07/13 05:31:18;;;;;;;;;19.00;18.75;;;;;18.12;70.31;100269.78;5077160;28;45710;-82
2021/07/13 05:33:51;;;;;;;;;19.00;18.00;;;;;18.56;70.62;100341.94;5076964;28;46416;-82
2021/07/13 05:36:16;;;;;;;;;21.25;19.50;;;;;18.31;70.73;100303.91;5059452;28;46999;-82
2021/07/13 05:38:58;;;;;;;;;17.25;16.50;;;;;18.14;70.94;100283.72;5059425;28;45764;-83
2021/07/13 05:41:31;;;;;;;;;18.25;17.75;;;;;18.54;70.78;100349.19;5061016;28;45590;-82
2021/07/13 05:44:01;;;;;;;;;18.75;18.25;;;;;17.98;70.93;100274.75;5076409;28;46494;-80
2021/07/13 05:46:27;;;;;;;;;16.50;16.00;;;;;18.44;71.06;100344.06;5080965;28;46062;-81
2021/07/13 05:48:52;;;;;;;;;20.50;18.50;;;;;18.52;70.71;100356.47;5080196;28;45800;-81
2021/07/13 05:51:18;;;;;;;;;21.50;20.25;;;;;18.29;71.16;100316.53;5082736;28;45561;-82
2021/07/13 05:53:44;;;;;;;;;19.00;18.25;;;;;18.50;70.74;100354.00;5082193;28;46407;-82
2021/07/13 05:56:10;;;;;;;;;19.00;17.75;;;;;18.42;70.70;100340.72;5083521;28;45743;-81
2021/07/13 05:58:36;;;;;;;;;17.50;17.00;;;;;18.53;71.47;100344.88;5079048;28;45757;-82
2021/07/13 06:01:03;;;;;;;;;18.75;17.50;;;;;18.54;70.62;100349.19;5075409;28;45604;-82
2021/07/13 06:03:28;;;;;;;;;17.75;17.00;;;;;18.55;70.80;100353.53;5075630;28;45646;-81
2021/07/13 06:09:39;;;;;;;;;17.75;16.75;;;;;18.47;70.98;100333.09;5076400;28;45604;-82
2021/07/13 06:12:05;;;;;;;;;21.25;18.75;;;;;18.32;70.86;100302.94;5076657;28;45521;-83
2021/07/13 06:14:34;;;;;;;;;20.25;19.00;;;;;18.46;70.57;100319.00;5056631;28;47900;-79
2021/07/13 06:17:00;;;;;;;;;23.00;20.75;;;;;18.46;70.95;100323.50;5074918;28;45997;-80
2021/07/13 06:19:27;;;;;;;;;21.75;20.75;;;;;18.60;71.12;100337.94;5074623;28;46119;-79
2021/07/13 06:21:52;;;;;;;;;23.00;21.25;;;;;18.56;70.74;100336.63;5056807;28;45619;-80
2021/07/13 06:24:17;;;;;;;;;23.75;22.75;;;;;18.35;70.22;100292.81;5074175;28;46622;-81
2021/07/13 06:26:43;;;;;;;;;23.25;20.75;;;;;18.69;70.64;100347.53;5074963;28;45714;-78
2021/07/13 06:29:08;;;;;;;;;22.75;21.25;;;;;18.71;70.37;100346.41;5074685;28;45658;-81
2021/07/13 06:31:34;;;;;;;;;20.25;19.25;;;;;18.74;71.00;100351.34;5074650;28;45752;-78
2021/07/13 06:33:59;;;;;;;;;23.25;21.75;;;;;18.77;70.83;100350.19;5074036;28;45637;-79
2021/07/13 06:36:29;;;;;;;;;21.00;20.25;;;;;18.79;70.36;100332.25;5074805;28;45455;-81
2021/07/13 06:38:55;;;;;;;;;23.00;20.50;;;;;18.78;70.74;100343.91;5074752;28;45585;-84
2021/07/13 06:41:21;;;;;;;;;23.00;20.00;;;;;18.81;71.12;100339.06;5075240;28;46014;-81
2021/07/13 06:43:46;;;;;;;;;20.00;19.75;;;;;18.70;70.88;100320.00;5074388;28;46262;-80
2021/07/13 06:46:11;;;;;;;;;22.75;21.75;;;;;18.73;70.60;100325.81;5074062;28;46173;-80
2021/07/13 06:48:37;;;;;;;;;21.25;20.00;;;;;18.79;70.67;100342.88;5074365;28;46184;-81
2021/07/13 06:54:24;;;;;;;;;23.00;20.75;;;;;18.81;70.79;100333.75;5075217;28;45979;-84
2021/07/13 06:56:49;;;;;;;;;25.00;20.75;;;;;18.73;70.90;100309.88;5074499;28;45969;-83
2021/07/13 06:59:15;;;;;;;;;23.50;22.50;;;;;18.80;70.83;100323.31;5075933;28;45549;-76
2021/07/13 07:01:41;;;;;;;;;21.50;21.50;;;;;18.80;70.97;100326.78;5077268;28;45770;-76
2021/07/13 07:04:06;;;;;;;;;23.00;22.50;;;;;18.86;70.74;100322.63;5075567;28;45677;-76
2021/07/13 07:09:56;;;;;;;;;26.25;25.25;;;;;18.86;71.33;100334.09;5076301;28;45713;-78
2021/07/13 07:12:21;;;;;;;;;23.75;22.25;;;;;18.85;71.06;100323.63;5076772;28;45650;-80
2021/07/13 07:14:47;;;;;;;;;22.00;20.00;;;;;18.86;70.84;100325.28;5075978;28;45629;-77
2021/07/13 07:17:12;;;;;;;;;24.50;23.00;;;;;18.84;71.15;100314.84;5076785;28;45670;-79
2021/07/13 07:19:38;;;;;;;;;21.75;20.00;;;;;18.85;71.33;100310.34;5076852;28;45658;-80
2021/07/13 07:22:06;;;;;;;;;25.50;23.00;;;;;18.66;71.16;100278.91;5077204;28;45549;-79
2021/07/13 07:24:32;;;;;;;;;27.75;25.25;;;;;18.81;71.02;100295.78;5076917;28;46386;-76
2021/07/13 07:26:57;;;;;;;;;25.25;23.25;;;;;18.67;71.22;100272.59;5077260;28;46445;-78
2021/07/13 07:29:23;;;;;;;;;21.75;21.25;;;;;18.88;70.87;100312.69;5076671;28;45778;-78
2021/07/13 07:31:50;;;;;;;;;24.25;23.00;;;;;18.89;71.08;100317.00;5076987;28;45875;-78
2021/07/13 07:34:16;;;;;;;;;25.50;23.75;;;;;18.90;70.79;100329.25;5077067;28;45787;-80
2021/07/13 07:40:06;;;;;;;;;22.25;21.50;;;;;18.89;71.17;100330.28;5076308;28;45791;-77
2021/07/13 07:42:32;;;;;;;;;23.00;22.00;;;;;18.79;70.83;100316.34;5076235;28;45627;-76
2021/07/13 07:44:58;;;;;;;;;24.75;23.75;;;;;18.93;71.27;100357.31;5077661;28;45690;-78
2021/07/13 07:47:23;;;;;;;;;24.25;23.50;;;;;18.95;70.92;100347.38;5077859;28;45722;-77
2021/07/13 07:49:49;;;;;;;;;24.50;22.50;;;;;18.93;71.03;100354.66;5059017;28;45779;-78
2021/07/13 07:52:14;;;;;;;;;21.75;20.00;;;;;18.94;70.66;100349.19;5077913;28;45524;-77
2021/07/13 07:54:39;;;;;;;;;24.75;23.50;;;;;18.93;70.56;100333.41;5077738;28;46437;-79
2021/07/13 07:57:05;;;;;;;;;24.75;21.75;;;;;18.89;71.01;100330.28;5076728;28;45921;-79
2021/07/13 07:59:30;;;;;;;;;25.75;23.25;;;;;19.00;70.85;100343.16;5080681;28;45617;-78
2021/07/13 08:01:56;;;;;;;;;27.25;23.00;;;;;19.08;70.50;100345.81;5081529;28;45957;-78
2021/07/13 08:04:23;;;;;;;;;24.00;21.25;;;;;19.11;70.59;100350.78;5082492;28;45636;-79
2021/07/13 08:10:11;;;;;;;;;27.00;24.25;;;;;19.11;70.47;100345.47;5077168;28;45495;-79
2021/07/13 08:12:37;;;;;;;;;22.75;20.25;;;;;19.16;71.21;100344.97;5076454;28;45592;-79
2021/07/13 08:15:05;;;;;;;;;21.00;19.50;;;;;19.18;70.69;100346.44;5075897;28;46428;-77
2021/07/13 08:17:31;;;;;;;;;23.75;20.00;;;;;19.15;70.94;100336.19;5075889;28;46052;-77
2021/07/13 08:19:57;;;;;;;;;21.75;21.00;;;;;19.11;70.51;100345.47;5075861;28;45646;-79
2021/07/13 08:22:22;;;;;;;;;21.25;20.75;;;;;19.20;70.34;100349.78;5076117;28;45617;-77
2021/07/13 08:24:48;;;;;;;;;20.00;18.00;;;;;19.28;70.47;100365.66;5075420;28;45686;-80
2021/07/13 08:27:14;;;;;;;;;23.00;20.75;;;;;19.26;70.31;100362.38;5076053;28;45671;-79
2021/07/13 08:29:39;;;;;;;;;27.50;20.75;;;;;19.28;70.72;100354.22;5075919;28;45808;-78
2021/07/13 08:32:05;;;;;;;;;22.50;19.50;;;;;19.25;70.79;100354.56;5075678;28;45687;-78
2021/07/13 08:34:33;;;;;;;;;17.75;17.00;;;;;19.30;70.88;100362.84;5075417;28;46327;-80
2021/07/13 08:40:20;;;;;;;;;18.50;16.50;;;;;19.26;70.43;100356.22;5075202;28;45885;-78
2021/07/13 08:42:46;;;;;;;;;19.75;19.25;;;;;19.25;71.05;100358.06;5075744;28;45830;-79
2021/07/13 08:45:17;;;;;;;;;21.25;18.50;;;;;19.27;71.00;100363.22;5075293;28;46586;-79
2021/07/13 08:47:46;;;;;;;;;22.25;21.25;;;;;19.24;70.60;100356.41;5074133;28;46335;-78
2021/07/13 08:50:14;;;;;;;;;22.00;20.00;;;;;19.29;70.84;100367.34;5075137;28;45800;-76
2021/07/13 08:56:02;;;;;;;;;25.25;22.50;;;;;19.32;71.00;100365.34;5075394;28;46179;-81
2021/07/13 08:58:28;;;;;;;;;19.25;18.25;;;;;19.32;70.68;100354.72;5075255;28;46701;-79
2021/07/13 09:00:53;;;;;;;;;21.00;19.50;;;;;19.29;70.55;100346.09;5075173;28;45618;-79
2021/07/13 09:03:22;;;;;;;;;19.75;17.25;;;;;19.33;70.78;100356.34;5073945;28;45651;-83
2021/07/13 09:05:50;;;;;;;;;28.50;24.00;;;;;19.33;70.62;100356.34;5058510;28;47007;-83
2021/07/13 09:08:20;;;;;;;;;26.25;21.75;;;;;19.37;71.34;100368.31;5075222;28;46302;-78
2021/07/13 09:11:01;;;;;;;;;19.50;18.25;;;;;19.32;70.72;100363.53;5075291;28;45655;-81
2021/07/13 09:13:30;;;;;;;;;24.25;22.75;;;;;19.36;71.00;100361.34;5075253;28;45954;-78
2021/07/13 09:16:00;;;;;;;;;19.75;19.00;;;;;19.38;71.13;100372.63;5074823;28;47225;-77
2021/07/13 09:18:45;;;;;;;;;20.25;20.25;;;;;19.38;70.84;100377.94;5074331;28;46318;-79
2021/07/13 09:21:11;;;;;;;;;18.75;16.50;;;;;19.38;70.81;100381.41;5074494;28;45745;-80
2021/07/13 09:23:58;;;;;;;;;22.75;17.00;;;;;19.39;71.06;100377.75;5074092;28;45919;-76
2021/07/13 09:26:56;;;;;;;;;16.25;15.25;;;;;19.40;71.10;100378.59;5074378;28;45571;-78
2021/07/13 09:29:27;;;;;;;;;21.00;17.50;;;;;19.38;70.92;100381.41;5073940;28;45965;-75
2021/07/13 09:32:18;;;;;;;;;16.50;15.75;;;;;19.38;70.68;100377.94;5074276;28;45723;-81
2021/07/13 09:35:03;;;;;;;;;21.75;20.25;;;;;19.42;70.98;100385.41;5074394;28;45674;-77
2021/07/13 09:37:34;;;;;;;;;20.50;18.25;;;;;19.36;71.01;100367.50;5074636;28;45608;-78
2021/07/13 09:40:04;;;;;;;;;20.00;16.75;;;;;19.45;71.08;100377.09;5074765;28;46117;-76
2021/07/13 09:42:31;;;;;;;;;21.50;18.00;;;;;19.46;70.87;100383.25;5074765;28;45762;-78
2021/07/13 09:45:20;;;;;;;;;21.25;19.25;;;;;19.47;70.95;100382.25;5056584;28;45523;-79
2021/07/13 09:47:48;;;;;;;;;20.75;19.25;;;;;19.47;71.20;100399.03;5074464;28;46114;-79
2021/07/13 09:50:30;;;;;;;;;20.50;19.25;;;;;19.47;71.14;100387.56;5074440;28;46148;-78
2021/07/13 09:53:00;;;;;;;;;20.00;17.25;;;;;19.47;70.67;100391.06;5072817;28;45693;-79
2021/07/13 09:55:26;;;;;;;;;21.75;17.50;;;;;19.40;71.20;100379.41;5058357;28;45620;-77
2021/07/13 09:57:53;;;;;;;;;20.00;19.00;;;;;19.46;71.22;100393.88;5076493;28;45758;-77
2021/07/13 10:00:21;;;;;;;;;21.50;20.75;;;;;19.31;71.28;100376.97;5076647;28;45667;-78
2021/07/13 10:02:51;;;;;;;;;21.25;19.25;;;;;19.40;71.35;100402.50;5076245;28;45658;-78
2021/07/13 10:05:20;;;;;;;;;19.25;17.25;;;;;19.40;71.50;100399.84;5075664;28;45904;-79
2021/07/13 10:07:47;;;;;;;;;22.00;19.25;;;;;19.40;71.79;100413.97;5073235;28;45814;-78
2021/07/13 10:10:15;;;;;;;;;19.50;17.75;;;;;19.41;71.80;100401.50;5073750;28;46162;-82
2021/07/13 10:12:41;;;;;;;;;19.50;17.00;;;;;19.32;72.24;100382.13;5076059;28;45713;-82
2021/07/13 10:15:07;;;;;;;;;16.75;15.50;;;;;19.40;72.91;100400.69;5074129;28;45635;-78
2021/07/13 10:17:34;;;;;;;;;17.75;16.25;;;;;19.39;72.15;100400.84;5073877;28;46357;-78
2021/07/13 10:20:04;;;;;;;;;15.50;14.50;;;;;19.39;71.99;100392.88;5074547;28;45631;-78
2021/07/13 10:22:31;;;;;;;;;17.25;17.00;;;;;19.39;72.23;100403.50;5075260;28;45558;-77
2021/07/13 10:24:59;;;;;;;;;19.00;16.25;;;;;19.36;72.54;100402.03;5076469;28;45800;-81
2021/07/13 10:27:27;;;;;;;;;19.00;17.00;;;;;19.39;72.32;100406.16;5074867;28;46515;-78
2021/07/13 10:29:56;;;;;;;;;17.50;16.25;;;;;19.36;72.47;100403.84;5073837;28;45982;-80
2021/07/13 10:32:25;;;;;;;;;17.50;15.50;;;;;19.40;72.01;100399.84;5074225;28;45706;-77
2021/07/13 10:34:59;;;;;;;;;20.75;17.75;;;;;19.40;72.09;100397.19;5077043;28;45615;-78
2021/07/13 10:37:40;;;;;;;;;21.00;17.75;;;;;19.43;72.26;100408.31;5077084;28;46659;-80
2021/07/13 10:40:25;;;;;;;;;16.25;15.75;;;;;19.45;72.68;100405.50;5076805;28;45930;-79
2021/07/13 10:42:58;;;;;;;;;22.75;20.00;;;;;19.38;72.28;100394.69;5078439;28;45715;-85
2021/07/13 10:45:27;;;;;;;;;21.75;20.25;;;;;19.47;72.40;100411.50;5059936;28;45798;-79
2021/07/13 10:48:05;;;;;;;;;22.25;20.75;;;;;19.49;72.59;100407.66;5077598;28;46451;-79
2021/07/13 10:50:30;;;;;;;;;23.75;21.75;;;;;19.50;72.40;100404.00;5078531;28;46042;-81
2021/07/13 10:53:17;;;;;;;;;24.00;21.25;;;;;19.51;72.74;100399.50;5079229;28;46182;-82
2021/07/13 10:55:42;;;;;;;;;24.00;21.25;;;;;19.54;72.80;100397.31;5061195;28;45590;-86
2021/07/13 10:58:10;;;;;;;;;21.50;20.25;;;;;19.56;72.51;100398.00;5080251;28;45604;-84
2021/07/13 11:00:56;;;;;;;;;24.75;20.25;;;;;19.60;72.71;100409.09;5080432;28;45998;-82
2021/07/13 11:03:36;;;;;;;;;22.25;18.25;;;;;19.62;72.25;100417.75;5079814;28;45691;-82
2021/07/13 11:06:06;;;;;;;;;23.50;22.00;;;;;19.52;72.78;100383.41;5077735;28;45905;-84
2021/07/13 11:08:41;;;;;;;;;27.25;23.00;;;;;19.66;73.03;100403.09;5077506;28;45597;-81
2021/07/13 11:11:29;;;;;;;;;20.25;19.50;;;;;19.67;72.84;100394.97;5076799;28;46185;-80
2021/07/13 11:14:03;;;;;;;;;19.25;17.50;;;;;19.68;73.00;100403.75;5076775;28;45646;-81
2021/07/13 11:16:40;;;;;;;;;22.25;21.00;;;;;19.60;72.87;100382.53;5042211;28;45621;-80
2021/07/13 11:19:12;;;;;;;;;19.25;18.25;;;;;19.71;72.56;100408.72;5077636;28;47618;-80
2021/07/13 11:24:24;;;;;;;;;20.25;18.25;;;;;19.73;72.89;100403.25;5066464;28;45799;-82
2021/07/13 11:26:55;;;;;;;;;25.50;24.25;;;;;19.76;73.40;100411.69;5077135;28;45438;-83
2021/07/13 11:29:26;;;;;;;;;21.50;17.25;;;;;19.70;72.83;100396.47;5076852;28;46788;-78
2021/07/13 11:32:01;;;;;;;;;17.75;16.00;;;;;19.83;72.88;100422.47;5076440;28;46029;-79
2021/07/13 11:34:40;;;;;;;;;23.75;19.25;;;;;19.86;72.74;100433.59;5076913;28;45585;-79
2021/07/13 11:40:26;;;;;;;;;18.00;16.75;;;;;19.82;72.82;100418.16;5076339;28;45589;-81
2021/07/13 11:42:56;;;;;;;;;22.00;19.75;;;;;19.86;73.00;100425.63;5076730;28;46591;-78
2021/07/13 11:45:22;;;;;;;;;22.00;21.50;;;;;19.86;72.83;100424.81;5075340;28;45778;-79
2021/07/13 11:47:47;;;;;;;;;21.00;17.00;;;;;19.89;73.09;100430.59;5076698;28;45659;-77
2021/07/13 11:50:12;;;;;;;;;16.50;14.00;;;;;19.92;72.96;100438.22;5076125;28;45477;-80
2021/07/13 11:56:01;;;;;;;;;21.50;16.50;;;;;19.94;73.13;100428.25;5076076;28;45510;-78
2021/07/13 11:58:31;;;;;;;;;17.75;16.75;;;;;19.94;73.27;100440.69;5076339;28;45443;-76
2021/07/13 12:01:23;;;;;;;;;18.25;17.00;;;;;19.92;73.25;100454.16;5076070;28;46432;-77
2021/07/13 12:03:49;;;;;;;;;21.25;19.00;;;;;19.90;73.25;100442.06;5076023;28;46167;-75
2021/07/13 12:06:17;;;;;;;;;17.50;16.75;;;;;19.88;73.57;100449.38;5075731;28;45629;-80
2021/07/13 12:12:16;;;;;;;;;15.25;12.25;;;;;19.78;74.24;100454.91;5075869;28;45649;-77
2021/07/13 12:14:51;;;;;;;;;9.75;9.75;;;;;19.71;74.97;100448.59;5077867;28;46155;-77
2021/07/13 12:17:21;;;;;;;;;12.00;11.25;;;;;19.66;74.53;100446.47;5079616;28;45642;-79